Time;durP1;ratioP1;P1;durP2;ratioP2;P2;SDS_P1;SDS_P2;PMS_P1;PMS_P2;Temp;Humidity;BMP_temperature;BMP_pressure;BME280_temperature;BME280_humidity;BME280_pressure;Samples;Min_cycle;Max_cycle;Signal;HPM_P1;HPM_P2
2022/11/20 00:01:28;;;;;;;12.85;8.00;;;4.60;79.60;;;;;;5073468;28;20035;-70
2022/11/20 00:03:56;;;;;;;13.77;8.68;;;4.60;79.60;;;;;;5071776;28;20052;-70
2022/11/20 00:06:27;;;;;;;14.82;9.15;;;4.60;79.60;;;;;;5073003;28;20025;-70
2022/11/20 00:08:56;;;;;;;13.25;8.82;;;4.70;79.70;;;;;;5073279;28;20067;-70
2022/11/20 00:11:24;;;;;;;13.90;8.95;;;4.70;79.40;;;;;;5073126;28;20059;-70
2022/11/20 00:13:52;;;;;;;14.68;9.65;;;4.60;79.30;;;;;;5073271;28;20028;-70
2022/11/20 00:16:20;;;;;;;13.65;9.48;;;4.60;79.40;;;;;;5071796;28;20059;-70
2022/11/20 00:18:47;;;;;;;12.77;9.55;;;4.60;79.30;;;;;;5072159;28;20562;-71
2022/11/20 00:21:22;;;;;;;14.82;9.38;;;4.50;79.30;;;;;;5071932;28;20082;-70
2022/11/20 00:23:48;;;;;;;16.30;9.82;;;4.50;79.40;;;;;;5073322;28;20028;-69
2022/11/20 00:26:16;;;;;;;14.43;10.00;;;4.40;79.20;;;;;;5075031;28;20025;-70
2022/11/20 00:28:44;;;;;;;14.50;10.02;;;4.20;79.10;;;;;;5077320;28;20024;-70
2022/11/20 00:31:14;;;;;;;14.63;9.77;;;4.10;80.10;;;;;;5076854;28;20063;-70
2022/11/20 00:33:40;;;;;;;14.52;9.23;;;4.00;80.70;;;;;;5077053;28;20040;-69
2022/11/20 00:36:11;;;;;;;13.20;9.13;;;4.10;80.90;;;;;;5075239;28;20029;-70
2022/11/20 00:38:37;;;;;;;16.40;10.75;;;4.20;80.80;;;;;;5077202;28;20052;-69
2022/11/20 00:41:06;;;;;;;15.27;10.60;;;4.20;80.60;;;;;;5075677;28;20101;-70
2022/11/20 00:43:32;;;;;;;12.90;8.95;;;4.30;80.50;;;;;;5076663;28;20116;-69
2022/11/20 00:46:16;;;;;;;11.68;8.45;;;4.30;80.50;;;;;;5076850;28;20579;-70
2022/11/20 00:48:42;;;;;;;;;;;4.40;80.60;;;;;;5076957;28;20159;-70
2022/11/20 00:51:07;;;;;;;14.27;8.35;;;4.40;80.50;;;;;;5076735;28;19962;-70
2022/11/20 00:53:33;;;;;;;14.35;9.38;;;4.40;80.40;;;;;;5076819;28;20029;-70
2022/11/20 00:56:05;;;;;;;13.30;9.50;;;4.40;80.30;;;;;;5076905;28;20099;-70
2022/11/20 00:58:33;;;;;;;14.60;9.85;;;4.30;80.40;;;;;;5076379;28;20047;-70
2022/11/20 01:01:14;;;;;;;11.77;8.93;;;4.20;80.50;;;;;;5076505;28;20028;-70
2022/11/20 01:03:42;;;;;;;13.38;8.95;;;4.20;80.70;;;;;;5076133;28;20147;-70
2022/11/20 01:06:25;;;;;;;14.85;10.10;;;4.20;80.70;;;;;;5074983;28;20056;-70
2022/11/20 01:08:52;;;;;;;12.27;9.00;;;4.10;80.70;;;;;;5074859;28;20472;-70
2022/11/20 01:11:24;;;;;;;13.77;8.93;;;4.10;80.90;;;;;;5074874;28;20025;-70
2022/11/20 01:13:52;;;;;;;12.77;8.70;;;4.00;81.20;;;;;;5076296;28;20029;-70
2022/11/20 01:16:22;;;;;;;15.50;9.73;;;4.10;81.30;;;;;;5076520;28;20035;-69
2022/11/20 01:18:50;;;;;;;13.05;9.80;;;4.00;81.40;;;;;;5075320;28;20078;-70
2022/11/20 01:21:21;;;;;;;13.45;9.55;;;3.70;81.60;;;;;;5076158;28;20028;-69
2022/11/20 01:23:48;;;;;;;14.05;10.35;;;3.50;82.30;;;;;;5075776;28;20055;-70
2022/11/20 01:26:16;;;;;;;14.68;9.30;;;3.40;82.90;;;;;;5074594;28;20040;-69
2022/11/20 01:28:42;;;;;;;13.77;9.68;;;3.20;83.70;;;;;;5075704;28;20051;-70
2022/11/20 01:31:20;;;;;;;13.10;9.43;;;3.00;84.60;;;;;;5074604;28;20039;-70
2022/11/20 01:33:47;;;;;;;16.25;10.13;;;2.90;85.20;;;;;;5074220;28;20024;-70
2022/11/20 01:36:14;;;;;;;13.40;9.55;;;2.80;85.50;;;;;;5074210;28;20025;-70
2022/11/20 01:38:40;;;;;;;13.60;9.45;;;2.90;85.70;;;;;;5075259;28;20078;-70
2022/11/20 01:41:06;;;;;;;13.95;9.80;;;2.90;85.60;;;;;;5074597;28;20432;-70
2022/11/20 01:43:33;;;;;;;13.60;9.35;;;2.90;85.60;;;;;;5074454;28;20460;-70
2022/11/20 01:46:07;;;;;;;16.02;10.23;;;2.90;85.70;;;;;;5057834;28;20070;-69
2022/11/20 01:48:38;;;;;;;14.77;8.55;;;2.90;85.60;;;;;;5073817;28;20417;-70
2022/11/20 01:51:07;;;;;;;14.27;9.90;;;3.10;85.40;;;;;;5075810;28;20020;-70
2022/11/20 01:53:36;;;;;;;13.05;8.85;;;3.20;85.20;;;;;;5075666;28;20040;-70
2022/11/20 01:56:05;;;;;;;18.05;9.68;;;3.30;85.00;;;;;;5074471;28;20419;-70
2022/11/20 01:58:35;;;;;;;16.05;9.75;;;3.30;84.60;;;;;;5075307;28;20055;-70
2022/11/20 02:01:02;;;;;;;12.63;8.75;;;3.30;84.80;;;;;;5075594;28;20021;-69
2022/11/20 02:03:28;;;;;;;12.35;8.63;;;3.30;85.00;;;;;;5073448;28;20029;-70
2022/11/20 02:06:04;;;;;;;12.27;8.05;;;3.30;85.00;;;;;;5074120;28;20062;-70
2022/11/20 02:08:30;;;;;;;13.50;8.45;;;3.40;84.80;;;;;;5074731;28;20024;-70
2022/11/20 02:10:56;;;;;;;12.68;8.40;;;3.60;84.50;;;;;;5073522;28;20029;-70
2022/11/20 02:16:19;;;;;;;12.70;9.02;;;3.70;84.10;;;;;;5074576;28;20103;-70
2022/11/20 02:18:45;;;;;;;15.77;9.30;;;3.80;83.70;;;;;;5074219;28;20037;-70
2022/11/20 02:21:20;;;;;;;13.60;8.60;;;3.80;83.60;;;;;;5074916;28;20067;-70
2022/11/20 02:24:02;;;;;;;13.35;8.88;;;3.80;83.50;;;;;;5073252;28;20029;-70
2022/11/20 02:26:31;;;;;;;13.57;8.88;;;3.90;83.40;;;;;;5073983;28;20028;-70
2022/11/20 02:29:00;;;;;;;12.65;8.13;;;3.90;83.20;;;;;;5074193;28;20066;-70
2022/11/20 02:31:25;;;;;;;11.82;8.30;;;3.90;83.00;;;;;;5073126;28;20024;-70
2022/11/20 02:33:56;;;;;;;12.77;8.00;;;4.00;83.00;;;;;;5073252;28;20033;-70
2022/11/20 02:36:22;;;;;;;13.55;9.35;;;4.00;83.00;;;;;;5072827;28;20025;-70
2022/11/20 02:38:49;;;;;;;13.90;8.80;;;4.10;82.80;;;;;;5074148;28;20032;-70
2022/11/20 02:41:15;;;;;;;12.98;8.50;;;4.00;82.70;;;;;;5072907;28;20157;-70
2022/11/20 02:43:40;;;;;;;13.05;8.70;;;4.10;82.60;;;;;;5073778;28;20123;-70
2022/11/20 02:46:08;;;;;;;13.65;8.50;;;4.10;82.60;;;;;;5072854;28;20461;-70
2022/11/20 02:48:33;;;;;;;13.35;9.32;;;4.10;82.40;;;;;;5072499;28;20024;-70
2022/11/20 02:50:59;;;;;;;12.13;8.73;;;4.00;82.10;;;;;;5072690;28;20035;-70
2022/11/20 02:53:25;;;;;;;12.18;8.40;;;4.00;82.30;;;;;;5055967;28;20064;-70
2022/11/20 02:55:50;;;;;;;14.18;8.43;;;3.90;82.30;;;;;;5072728;28;20086;-70
2022/11/20 02:58:16;;;;;;;11.60;8.70;;;4.00;82.50;;;;;;5073859;28;20355;-69
2022/11/20 03:00:41;;;;;;;11.38;8.85;;;4.00;82.40;;;;;;5055697;28;20033;-70
2022/11/20 03:03:07;;;;;;;13.38;9.18;;;4.00;82.20;;;;;;5073538;28;20416;-69
2022/11/20 03:05:33;;;;;;;12.55;8.80;;;4.00;82.20;;;;;;5055527;28;20461;-70
2022/11/20 03:07:59;;;;;;;12.52;8.98;;;4.00;82.20;;;;;;5073731;28;20040;-70
2022/11/20 03:10:24;;;;;;;15.52;8.88;;;3.90;82.20;;;;;;5072128;28;20024;-70
2022/11/20 03:12:56;;;;;;;15.02;9.75;;;3.90;82.30;;;;;;5072013;28;20479;-70
2022/11/20 03:15:23;;;;;;;13.38;8.95;;;3.80;82.00;;;;;;5072079;28;20448;-70
2022/11/20 03:17:48;;;;;;;13.48;9.02;;;3.70;82.40;;;;;;5055028;28;20115;-70
2022/11/20 03:20:14;;;;;;;14.27;9.18;;;3.70;82.70;;;;;;5072027;28;20465;-69
2022/11/20 03:22:40;;;;;;;15.57;9.60;;;3.60;82.00;;;;;;5073249;28;20047;-69
2022/11/20 03:25:06;;;;;;;15.32;9.27;;;3.30;82.30;;;;;;5055419;28;20044;-70
2022/11/20 03:27:34;;;;;;;14.40;9.65;;;3.20;83.10;;;;;;5055399;28;20491;-69
2022/11/20 03:29:59;;;;;;;13.02;8.95;;;3.10;83.50;;;;;;5073330;28;20051;-70
2022/11/20 03:32:25;;;;;;;14.60;9.77;;;3.20;83.70;;;;;;5073261;28;20473;-70
2022/11/20 03:34:51;;;;;;;13.93;9.45;;;3.30;83.70;;;;;;5054655;28;20036;-70
2022/11/20 03:37:16;;;;;;;12.23;9.10;;;3.10;83.80;;;;;;5072029;28;20029;-70
2022/11/20 03:39:42;;;;;;;14.38;9.50;;;3.00;84.40;;;;;;5071768;28;20029;-70
2022/11/20 03:42:44;;;;;;;13.95;9.38;;;3.10;84.60;;;;;;5071598;28;20500;-70
2022/11/20 03:44:55;;;;;;;11.60;8.45;;;3.10;84.40;;;;;;5072691;28;20043;-70
2022/11/20 03:47:20;;;;;;;15.98;9.10;;;3.30;84.20;;;;;;5072943;28;20449;-69
2022/11/20 03:49:46;;;;;;;15.05;9.70;;;3.40;84.00;;;;;;5071155;28;20032;-70
2022/11/20 03:52:12;;;;;;;12.43;8.95;;;3.40;83.80;;;;;;5072790;28;20137;-70
2022/11/20 03:54:37;;;;;;;14.15;9.07;;;3.50;83.90;;;;;;5071794;28;20151;-70
2022/11/20 03:57:03;;;;;;;13.52;9.70;;;3.50;83.90;;;;;;5071477;28;20028;-70
2022/11/20 03:59:28;;;;;;;14.13;9.32;;;3.60;83.90;;;;;;5072588;28;20492;-70
2022/11/20 04:01:54;;;;;;;12.95;9.02;;;3.60;83.80;;;;;;5071285;28;20078;-69
2022/11/20 04:04:20;;;;;;;12.90;8.55;;;3.60;83.70;;;;;;5070969;28;20064;-70
2022/11/20 04:06:46;;;;;;;13.88;9.32;;;3.60;83.70;;;;;;5072807;28;20024;-70
2022/11/20 04:09:12;;;;;;;14.70;10.02;;;3.70;83.80;;;;;;5072493;28;20123;-69
2022/11/20 04:11:40;;;;;;;17.00;10.82;;;3.70;83.80;;;;;;5072758;28;20024;-69
2022/11/20 04:14:12;;;;;;;14.50;10.02;;;3.70;84.00;;;;;;5072507;28;20032;-69
2022/11/20 04:16:38;;;;;;;16.52;9.55;;;3.70;84.20;;;;;;5071519;28;20025;-70
2022/11/20 04:19:09;;;;;;;14.85;10.32;;;3.70;84.30;;;;;;5072181;28;20441;-70
2022/11/20 04:21:34;;;;;;;15.02;9.55;;;3.70;84.20;;;;;;5072352;28;20028;-70
2022/11/20 04:24:00;;;;;;;15.85;10.48;;;3.60;84.30;;;;;;5070969;28;20381;-70
2022/11/20 04:26:28;;;;;;;16.33;10.38;;;3.60;84.30;;;;;;5054376;28;20037;-70
2022/11/20 04:28:54;;;;;;;14.75;10.30;;;3.60;84.50;;;;;;5071154;28;20029;-70
2022/11/20 04:31:22;;;;;;;15.88;9.73;;;3.60;84.70;;;;;;5071363;28;20115;-70
2022/11/20 04:33:47;;;;;;;13.55;10.20;;;3.60;84.70;;;;;;5072373;28;20108;-71
2022/11/20 04:36:19;;;;;;;14.95;9.95;;;3.60;84.80;;;;;;5072251;28;20143;-69
2022/11/20 04:38:45;;;;;;;13.80;9.40;;;3.60;84.80;;;;;;5072264;28;20058;-70
2022/11/20 04:41:16;;;;;;;14.68;10.18;;;3.60;84.80;;;;;;5054435;28;20162;-70
2022/11/20 04:43:41;;;;;;;14.60;9.77;;;3.70;84.90;;;;;;5071060;28;20468;-70
2022/11/20 04:46:07;;;;;;;15.63;10.25;;;3.70;84.80;;;;;;5072464;28;20032;-70
2022/11/20 04:48:34;;;;;;;14.00;9.52;;;3.70;84.90;;;;;;5070738;28;20432;-69
2022/11/20 04:51:03;;;;;;;14.02;9.05;;;3.60;84.90;;;;;;5070639;28;20028;-70
2022/11/20 04:53:29;;;;;;;15.32;8.60;;;3.60;84.90;;;;;;5072339;28;20067;-70
2022/11/20 04:56:03;;;;;;;13.95;9.57;;;3.70;84.90;;;;;;5070814;28;20060;-70
2022/11/20 04:58:29;;;;;;;13.60;9.07;;;3.70;84.90;;;;;;5072620;28;20029;-70
2022/11/20 05:01:04;;;;;;;14.77;9.82;;;3.70;85.00;;;;;;5070977;28;20025;-70
2022/11/20 05:03:30;;;;;;;13.55;9.70;;;3.70;85.20;;;;;;5072145;28;20066;-70
2022/11/20 05:05:55;;;;;;;14.35;10.27;;;3.60;85.20;;;;;;5070777;28;20079;-70
2022/11/20 05:08:21;;;;;;;16.10;11.15;;;3.50;85.10;;;;;;5072385;28;20056;-70
2022/11/20 05:10:46;;;;;;;15.55;9.73;;;3.40;85.10;;;;;;5071698;28;20029;-70
2022/11/20 05:13:12;;;;;;;13.45;9.82;;;3.30;85.40;;;;;;5074427;28;20032;-70
2022/11/20 05:15:38;;;;;;;14.65;10.38;;;3.20;85.90;;;;;;5075678;28;20388;-70
2022/11/20 05:18:03;;;;;;;13.38;9.60;;;3.20;86.10;;;;;;5074209;28;20418;-70
2022/11/20 05:20:29;;;;;;;15.05;10.80;;;3.20;86.30;;;;;;5074218;28;20036;-70
2022/11/20 05:22:58;;;;;;;14.18;10.55;;;3.20;86.40;;;;;;5075292;28;20033;-70
2022/11/20 05:25:23;;;;;;;15.45;10.60;;;3.20;86.50;;;;;;5074459;28;20040;-70
2022/11/20 05:27:49;;;;;;;13.75;10.00;;;3.00;86.70;;;;;;5074331;28;20020;-69
2022/11/20 05:30:15;;;;;;;15.57;10.38;;;2.90;87.10;;;;;;5075322;28;20024;-70
2022/11/20 05:32:40;;;;;;;15.25;10.18;;;2.90;87.20;;;;;;5074307;28;20025;-70
2022/11/20 05:35:06;;;;;;;15.57;9.82;;;2.80;87.10;;;;;;5057552;28;20123;-70
2022/11/20 05:37:32;;;;;;;14.90;9.68;;;2.90;87.20;;;;;;5074884;28;20027;-70
2022/11/20 05:39:58;;;;;;;15.50;10.32;;;2.90;87.10;;;;;;5075216;28;20040;-70
2022/11/20 05:42:32;;;;;;;14.50;9.70;;;3.00;86.80;;;;;;5057320;28;20140;-70
2022/11/20 05:45:03;;;;;;;16.35;11.20;;;2.90;86.80;;;;;;5075112;28;20090;-70
2022/11/20 05:47:34;;;;;;;15.90;10.07;;;2.70;87.30;;;;;;5075217;28;20036;-69
2022/11/20 05:49:59;;;;;;;16.05;10.75;;;2.60;87.70;;;;;;5074753;28;20029;-70
2022/11/20 05:52:28;;;;;;;14.00;9.73;;;2.70;87.90;;;;;;5075057;28;20483;-70
2022/11/20 05:54:54;;;;;;;15.25;9.70;;;2.70;87.90;;;;;;5073566;28;20037;-70
2022/11/20 05:57:19;;;;;;;15.38;10.38;;;2.80;87.70;;;;;;5056907;28;20086;-70
2022/11/20 05:59:45;;;;;;;14.95;10.45;;;2.80;87.30;;;;;;5074390;28;20530;-70
2022/11/20 06:02:11;;;;;;;14.82;10.73;;;2.50;87.40;;;;;;5056680;28;20024;-70
2022/11/20 06:04:36;;;;;;;15.57;10.30;;;2.20;88.40;;;;;;5073227;28;20128;-70
2022/11/20 06:07:02;;;;;;;16.90;10.88;;;2.10;89.10;;;;;;5056879;28;20440;-70
2022/11/20 06:09:27;;;;;;;16.58;10.82;;;2.00;89.60;;;;;;5056821;28;20033;-70
2022/11/20 06:11:53;;;;;;;17.45;11.23;;;2.00;89.90;;;;;;5072725;28;20024;-70
2022/11/20 06:14:19;;;;;;;16.30;11.02;;;2.00;90.00;;;;;;5073397;28;20028;-70
2022/11/20 06:16:44;;;;;;;18.92;11.70;;;1.90;90.00;;;;;;5073291;28;20037;-71
2022/11/20 06:19:10;;;;;;;17.55;10.43;;;1.90;90.20;;;;;;5074057;28;20584;-70
2022/11/20 06:21:36;;;;;;;16.90;10.15;;;1.90;90.20;;;;;;5074300;28;20033;-70
2022/11/20 06:24:01;;;;;;;19.75;12.05;;;2.00;90.20;;;;;;5072964;28;20043;-68
2022/11/20 06:26:27;;;;;;;17.52;11.50;;;2.10;90.10;;;;;;5072992;28;20047;-67
2022/11/20 06:28:55;;;;;;;17.20;11.18;;;2.00;90.20;;;;;;5072947;28;20028;-67
2022/11/20 06:31:22;;;;;;;16.33;11.73;;;2.00;90.30;;;;;;5074331;28;20120;-67
2022/11/20 06:33:49;;;;;;;19.20;11.10;;;2.10;90.30;;;;;;5072812;28;20448;-67
2022/11/20 06:36:16;;;;;;;17.95;12.02;;;2.20;90.30;;;;;;5072887;28;20028;-67
2022/11/20 06:38:43;;;;;;;14.77;10.10;;;2.30;90.10;;;;;;5073947;28;20115;-67
2022/11/20 06:41:14;;;;;;;16.48;10.52;;;2.40;90.00;;;;;;5074240;28;20047;-67
2022/11/20 06:43:40;;;;;;;16.10;11.00;;;2.50;89.80;;;;;;5072594;28;20499;-67
2022/11/20 06:46:06;;;;;;;15.80;10.40;;;2.60;89.50;;;;;;5072525;28;20033;-68
2022/11/20 06:48:31;;;;;;;15.48;10.15;;;2.70;89.30;;;;;;5072924;28;20491;-68
2022/11/20 06:50:57;;;;;;;16.20;10.38;;;2.70;89.00;;;;;;5072367;28;20029;-68
2022/11/20 06:53:23;;;;;;;18.33;10.70;;;2.80;88.80;;;;;;5073526;28;20032;-68
2022/11/20 06:55:51;;;;;;;17.10;11.15;;;2.90;88.70;;;;;;5073391;28;20048;-68
2022/11/20 06:58:17;;;;;;;18.75;10.65;;;2.90;88.40;;;;;;5073290;28;20040;-68
2022/11/20 07:00:43;;;;;;;16.67;10.25;;;2.90;88.20;;;;;;5073568;28;20126;-68
2022/11/20 07:03:11;;;;;;;15.60;10.60;;;2.90;88.10;;;;;;5073380;28;20036;-72
2022/11/20 07:05:38;;;;;;;19.00;11.80;;;2.90;88.00;;;;;;5073297;28;20079;-71
2022/11/20 07:08:04;;;;;;;15.30;10.75;;;2.90;87.90;;;;;;5073534;28;20032;-71
2022/11/20 07:10:30;;;;;;;16.95;11.15;;;2.90;87.90;;;;;;5073649;28;20052;-71
2022/11/20 07:12:56;;;;;;;17.40;11.07;;;3.00;87.90;;;;;;5072185;28;20029;-72
2022/11/20 07:15:23;;;;;;;17.42;11.15;;;3.00;87.70;;;;;;5073587;28;20059;-71
2022/11/20 07:17:49;;;;;;;17.80;11.63;;;3.00;87.70;;;;;;5072852;28;20071;-72
2022/11/20 07:20:15;;;;;;;19.50;11.73;;;3.00;87.70;;;;;;5071985;28;20054;-72
2022/11/20 07:22:41;;;;;;;20.10;11.20;;;3.00;87.70;;;;;;5072094;28;20079;-72
2022/11/20 07:25:08;;;;;;;16.42;11.68;;;3.00;87.70;;;;;;5055140;28;20047;-72
2022/11/20 07:27:34;;;;;;;17.10;11.70;;;3.00;87.70;;;;;;5072174;28;20037;-72
2022/11/20 07:30:00;;;;;;;17.88;12.05;;;3.00;87.70;;;;;;5072120;28;20093;-72
2022/11/20 07:32:25;;;;;;;16.15;11.38;;;3.00;87.80;;;;;;5073328;28;20063;-72
2022/11/20 07:34:51;;;;;;;21.65;12.38;;;3.00;87.90;;;;;;5070942;28;20052;-70
2022/11/20 07:37:18;;;;;;;18.98;11.95;;;3.00;87.90;;;;;;5071472;28;20418;-67
2022/11/20 07:39:43;;;;;;;18.92;12.35;;;3.00;88.00;;;;;;5071354;28;20020;-69
2022/11/20 07:42:10;;;;;;;17.77;12.07;;;3.00;88.10;;;;;;5072406;28;20388;-68
2022/11/20 07:44:36;;;;;;;17.45;12.43;;;3.00;88.10;;;;;;5072467;28;20036;-68
2022/11/20 07:47:01;;;;;;;19.42;12.30;;;2.80;87.70;;;;;;5072190;28;20057;-68
2022/11/20 07:49:27;;;;;;;21.40;13.98;;;2.60;88.40;;;;;;5072125;28;20044;-68
2022/11/20 07:51:53;;;;;;;25.33;14.98;;;2.50;89.10;;;;;;5072350;28;20029;-68
2022/11/20 07:54:20;;;;;;;23.08;14.90;;;2.30;89.80;;;;;;5072657;28;20035;-67
2022/11/20 07:56:46;;;;;;;20.02;13.40;;;2.30;90.10;;;;;;5072475;28;20091;-67
2022/11/20 07:59:11;;;;;;;20.23;13.70;;;2.30;90.30;;;;;;5072361;28;20036;-68
2022/11/20 08:01:38;;;;;;;20.55;13.20;;;2.30;90.40;;;;;;5070342;28;20036;-68
2022/11/20 08:04:04;;;;;;;22.30;14.10;;;2.30;90.50;;;;;;5070846;28;20040;-69
2022/11/20 08:06:30;;;;;;;20.55;13.60;;;2.40;90.40;;;;;;5071134;28;20024;-68
2022/11/20 08:08:56;;;;;;;19.92;13.60;;;2.30;90.50;;;;;;5069702;28;20545;-68
2022/11/20 08:14:11;;;;;;;23.15;13.88;;;2.40;90.60;;;;;;5070953;28;20067;-68
2022/11/20 08:16:38;;;;;;;21.80;14.20;;;2.50;90.70;;;;;;5069808;28;20052;-68
2022/11/20 08:19:03;;;;;;;25.77;14.75;;;2.50;90.70;;;;;;5070175;28;20036;-68
2022/11/20 08:21:30;;;;;;;24.80;15.88;;;2.50;90.80;;;;;;5060313;28;20501;-68
2022/11/20 08:23:57;;;;;;;26.95;16.15;;;2.60;90.90;;;;;;5069557;28;20024;-68
2022/11/20 08:26:23;;;;;;;25.85;16.98;;;2.50;91.10;;;;;;5070304;28;20052;-68
2022/11/20 08:28:52;;;;;;;26.45;16.10;;;2.50;91.40;;;;;;5071120;28;20067;-68
2022/11/20 08:31:18;;;;;;;27.95;16.38;;;2.40;91.60;;;;;;5068482;28;20032;-68
2022/11/20 08:33:43;;;;;;;27.15;16.45;;;2.30;91.70;;;;;;5070799;28;20079;-68
2022/11/20 08:36:09;;;;;;;25.70;16.67;;;2.40;91.90;;;;;;5070172;28;20036;-72
2022/11/20 08:38:35;;;;;;;23.63;14.95;;;2.30;92.10;;;;;;5072151;28;20037;-71
2022/11/20 08:43:45;;;;;;;22.58;14.00;;;2.70;93.20;;;;;;5072264;28;20466;-68
2022/11/20 08:46:11;;;;;;;28.55;16.35;;;3.00;93.40;;;;;;5070776;28;20108;-70
2022/11/20 08:48:37;;;;;;;23.00;14.95;;;3.20;93.40;;;;;;5074083;28;20526;-73
2022/11/20 08:51:03;;;;;;;26.30;15.05;;;3.30;92.90;;;;;;5074344;28;20027;-73
2022/11/20 08:53:28;;;;;;;23.77;14.45;;;3.50;93.00;;;;;;5057461;28;20472;-70
2022/11/20 08:55:54;;;;;;;24.08;14.77;;;3.70;93.20;;;;;;5074451;28;20033;-69
2022/11/20 08:58:20;;;;;;;24.90;15.20;;;3.90;93.00;;;;;;5075535;28;20024;-70
2022/11/20 09:00:45;;;;;;;22.10;15.43;;;4.10;92.10;;;;;;5073911;28;20628;-70
2022/11/20 09:03:13;;;;;;;19.08;13.70;;;4.10;91.60;;;;;;5074254;28;20024;-69
2022/11/20 09:05:38;;;;;;;20.10;14.07;;;4.30;92.10;;;;;;5075531;28;20087;-73
2022/11/20 09:08:04;;;;;;;21.15;14.43;;;4.30;91.80;;;;;;5074654;28;20055;-73
2022/11/20 09:10:30;;;;;;;19.80;14.60;;;4.30;91.30;;;;;;5075864;28;20068;-73
2022/11/20 09:12:56;;;;;;;23.38;15.13;;;4.20;90.80;;;;;;5075643;28;20029;-70
2022/11/20 09:15:22;;;;;;;25.00;14.80;;;4.20;91.00;;;;;;5074073;28;20032;-69
2022/11/20 09:17:56;;;;;;;21.55;15.18;;;4.10;91.60;;;;;;5074944;28;20043;-69
2022/11/20 09:20:22;;;;;;;21.65;15.60;;;3.90;92.10;;;;;;5074093;28;20154;-69
2022/11/20 09:22:48;;;;;;;19.00;13.35;;;4.00;92.20;;;;;;5071065;28;20111;-70
2022/11/20 09:25:13;;;;;;;21.13;15.13;;;4.00;92.50;;;;;;5073682;28;20536;-69
2022/11/20 09:27:41;;;;;;;19.33;13.98;;;4.20;92.60;;;;;;5075097;28;20150;-69
2022/11/20 09:30:07;;;;;;;19.40;13.18;;;4.20;92.60;;;;;;5073778;28;20025;-69
2022/11/20 09:32:33;;;;;;;24.17;14.82;;;4.30;92.70;;;;;;5073687;28;20025;-73
2022/11/20 09:34:59;;;;;;;21.83;13.65;;;4.30;92.40;;;;;;5075322;28;20119;-72
2022/11/20 09:37:24;;;;;;;21.73;14.35;;;4.30;92.30;;;;;;5073815;28;20094;-73
2022/11/20 09:39:50;;;;;;;23.58;14.20;;;4.40;92.40;;;;;;5075245;28;20393;-73
2022/11/20 09:42:24;;;;;;;21.15;14.35;;;4.50;93.20;;;;;;5073880;28;20024;-71
2022/11/20 09:44:53;;;;;;;20.08;14.57;;;4.60;93.60;;;;;;5074131;28;20534;-71
2022/11/20 09:47:36;;;;;;;20.58;14.40;;;4.60;92.60;;;;;;5075077;28;20097;-73
2022/11/20 09:50:36;;;;;;;21.85;14.80;;;4.60;93.10;;;;;;5074502;28;20033;-71
2022/11/20 09:53:42;;;;;;;19.98;14.15;;;4.70;93.20;;;;;;5073814;28;20145;-71
2022/11/20 09:56:10;;;;;;;21.85;14.27;;;4.80;92.90;;;;;;5029351;28;20326;-71
2022/11/20 09:58:45;;;;;;;17.45;11.88;;;4.80;92.40;;;;;;5074350;28;20032;-72
2022/11/20 10:01:17;;;;;;;19.80;12.77;;;4.80;92.70;;;;;;5073185;28;20024;-70
2022/11/20 10:04:03;;;;;;;23.90;15.75;;;4.90;93.00;;;;;;5074623;28;20032;-71
2022/11/20 10:06:32;;;;;;;23.30;15.65;;;5.00;92.90;;;;;;5073312;28;20047;-73
2022/11/20 10:09:26;;;;;;;25.85;17.10;;;5.00;92.20;;;;;;5073348;28;20492;-71
2022/11/20 10:11:55;;;;;;;;;;;4.90;91.70;;;;;;5072443;28;20042;-71
2022/11/20 10:14:47;;;;;;;22.35;14.70;;;4.90;91.90;;;;;;5073164;28;19940;-71
2022/11/20 10:17:31;;;;;;;21.77;14.60;;;4.90;91.90;;;;;;5074621;28;20024;-71
2022/11/20 10:20:29;;;;;;;22.65;14.98;;;4.90;91.90;;;;;;5074135;28;20056;-72
2022/11/20 10:23:06;;;;;;;22.80;15.05;;;5.10;92.30;;;;;;5002963;28;20030;-71
2022/11/20 10:25:43;;;;;;;23.75;15.80;;;5.00;91.60;;;;;;5074195;28;20029;-71
2022/11/20 10:28:33;;;;;;;23.02;14.98;;;5.00;92.00;;;;;;5073841;28;20060;-71
2022/11/20 10:31:12;;;;;;;27.45;17.67;;;5.00;92.00;;;;;;5074154;28;20024;-71
2022/11/20 10:33:42;;;;;;;24.40;16.23;;;5.00;91.90;;;;;;5072929;28;20129;-71
2022/11/20 10:36:23;;;;;;;23.05;16.05;;;5.00;91.90;;;;;;5073856;28;20503;-71
2022/11/20 10:39:06;;;;;;;23.92;16.85;;;5.00;92.10;;;;;;5072645;28;20333;-71
2022/11/20 10:41:40;;;;;;;23.10;15.80;;;5.10;92.40;;;;;;5074441;28;20025;-71
2022/11/20 10:45:00;;;;;;;25.50;17.85;;;5.20;92.20;;;;;;5072747;28;20044;-71
2022/11/20 10:47:03;;;;;;;22.33;15.38;;;5.20;91.90;;;;;;5073303;28;20043;-73
2022/11/20 10:49:32;;;;;;;24.30;15.93;;;5.20;92.10;;;;;;5073360;28;20024;-71
2022/11/20 10:52:15;;;;;;;24.83;16.13;;;5.30;92.40;;;;;;5073619;28;20086;-71
2022/11/20 10:54:53;;;;;;;26.75;16.92;;;5.40;92.40;;;;;;5072624;28;20028;-71
2022/11/20 10:57:32;;;;;;;23.25;17.00;;;5.40;92.20;;;;;;5072587;28;20085;-70
2022/11/20 11:00:24;;;;;;;20.98;14.75;;;5.30;92.10;;;;;;5073524;28;20111;-71
2022/11/20 11:02:54;;;;;;;21.45;14.55;;;5.30;92.50;;;;;;5073258;28;20028;-71
2022/11/20 11:05:20;;;;;;;22.70;14.90;;;5.40;92.60;;;;;;5073407;28;20053;-70
2022/11/20 11:07:53;;;;;;;21.08;14.70;;;5.40;92.70;;;;;;5073632;28;20097;-71
2022/11/20 11:10:20;;;;;;;24.35;16.92;;;5.50;92.70;;;;;;5072059;28;20025;-71
2022/11/20 11:12:48;;;;;;;25.65;16.45;;;5.60;92.50;;;;;;5071934;28;20110;-71
2022/11/20 11:15:35;;;;;;;26.42;18.25;;;5.50;92.50;;;;;;5073390;28;20032;-71
2022/11/20 11:18:01;;;;;;;27.13;18.17;;;5.50;92.40;;;;;;5071985;28;20050;-73
2022/11/20 11:20:27;;;;;;;26.08;17.98;;;5.50;92.50;;;;;;5072072;28;20032;-71
2022/11/20 11:22:57;;;;;;;26.67;17.23;;;5.30;92.80;;;;;;5055557;28;20357;-71
2022/11/20 11:25:28;;;;;;;26.10;17.55;;;5.30;93.10;;;;;;5071930;28;20105;-71
2022/11/20 11:28:15;;;;;;;27.63;18.75;;;5.30;93.10;;;;;;5073265;28;20107;-71
2022/11/20 11:30:44;;;;;;;26.92;17.88;;;5.30;93.10;;;;;;5071401;28;20055;-71
2022/11/20 11:33:17;;;;;;;24.63;15.75;;;5.20;93.30;;;;;;5072979;28;20523;-71
2022/11/20 11:35:58;;;;;;;26.42;17.85;;;5.30;93.60;;;;;;5072879;28;20024;-71
2022/11/20 11:38:42;;;;;;;26.33;17.50;;;5.40;93.80;;;;;;5071976;28;20141;-71
2022/11/20 11:41:16;;;;;;;25.33;18.08;;;5.30;93.80;;;;;;5073256;28;20484;-71
2022/11/20 11:46:41;;;;;;;24.95;17.70;;;5.40;94.20;;;;;;5073216;28;20035;-71
2022/11/20 11:49:14;;;;;;;27.60;18.60;;;5.30;94.60;;;;;;5072339;28;20025;-71
2022/11/20 11:52:01;;;;;;;26.10;17.15;;;5.30;95.00;;;;;;5072413;28;20116;-72
2022/11/20 11:54:47;;;;;;;26.77;17.38;;;5.40;95.30;;;;;;5072993;28;20115;-69
2022/11/20 11:57:47;;;;;;;25.98;17.00;;;5.40;94.80;;;;;;5073012;28;20029;-69
2022/11/20 12:00:21;;;;;;;28.08;17.25;;;5.50;94.30;;;;;;5073031;28;20070;-72
2022/11/20 12:02:49;;;;;;;28.50;17.40;;;5.30;94.70;;;;;;5071340;28;20035;-69
2022/11/20 12:05:18;;;;;;;26.13;18.00;;;5.40;94.70;;;;;;5071133;28;20420;-69
2022/11/20 12:08:42;;;;;;;29.52;18.45;;;5.20;94.70;;;;;;5071638;28;20488;-68
2022/11/20 12:11:10;;;;;;;27.33;18.10;;;5.10;95.00;;;;;;4991386;28;20034;-69
2022/11/20 12:13:53;;;;;;;27.45;18.55;;;5.00;95.20;;;;;;4988424;28;20104;-70
2022/11/20 12:16:20;;;;;;;27.20;18.25;;;5.00;95.40;;;;;;5037257;28;20085;-69
2022/11/20 12:18:51;;;;;;;28.88;19.13;;;5.00;95.50;;;;;;5071625;28;20079;-69
2022/11/20 12:21:23;;;;;;;27.30;18.65;;;5.20;95.50;;;;;;5072887;28;20096;-70
2022/11/20 12:24:11;;;;;;;27.00;19.20;;;5.20;95.40;;;;;;5075520;28;20129;-70
2022/11/20 12:26:45;;;;;;;29.48;20.02;;;5.20;95.30;;;;;;5076075;28;20032;-70
2022/11/20 12:29:48;;;;;;;27.33;19.42;;;5.20;95.60;;;;;;5074381;28;20025;-69
2022/11/20 12:32:31;;;;;;;31.95;20.60;;;5.10;95.70;;;;;;5074534;28;20116;-73
2022/11/20 12:35:31;;;;;;;34.42;20.80;;;5.10;96.00;;;;;;5076422;28;20028;-74
2022/11/20 12:38:26;;;;;;;29.38;19.80;;;4.90;96.50;;;;;;5076119;28;20024;-70
2022/11/20 12:41:04;;;;;;;26.63;18.42;;;4.90;96.80;;;;;;5075474;28;20226;-72
2022/11/20 12:46:26;;;;;;;29.25;19.08;;;5.00;96.90;;;;;;5073423;28;20439;-70
2022/11/20 12:49:12;;;;;;;26.77;18.52;;;5.10;97.10;;;;;;5075442;28;20050;-70
2022/11/20 12:51:58;;;;;;;25.67;17.27;;;5.00;97.00;;;;;;5075095;28;20029;-70
2022/11/20 12:54:54;;;;;;;29.58;19.05;;;5.10;97.10;;;;;;5075571;28;20051;-71
2022/11/20 12:57:49;;;;;;;27.42;19.10;;;5.10;97.20;;;;;;5074201;28;20033;-69
2022/11/20 13:00:21;;;;;;;28.25;19.15;;;5.20;97.30;;;;;;5074314;28;20023;-70
2022/11/20 13:03:12;;;;;;;25.00;18.58;;;5.20;97.30;;;;;;5075969;28;20048;-69
2022/11/20 13:06:17;;;;;;;25.63;18.55;;;5.20;97.10;;;;;;5075451;28;20519;-69
2022/11/20 13:08:56;;;;;;;23.27;15.90;;;5.30;97.00;;;;;;5072101;28;20101;-70
2022/11/20 13:11:39;;;;;;;24.63;17.58;;;5.40;96.90;;;;;;5075412;28;20040;-70